Home > Products > Valid Products > TAF

000
FTUS43 KDTX 292322
TAFMBS
TAF
KMBS 292322Z 3000/3024 07005KT P6SM SCT045
     FM301800 10010KT P6SM OVC100
     FM302100 08010KT P6SM OVC035=



000
FTUS43 KDTX 292322
TAFDET
TAF
KDET 292322Z 3000/3024 06005KT P6SM OVC045
     FM300900 02003KT P6SM SCT045 OVC200
     FM301500 08010KT P6SM OVC150
     FM301800 09007KT P6SM OVC070
     FM302200 08008KT 6SM -SHRA BKN030 OVC070=



000
FTUS43 KDTX 292322
TAFDTW
TAF
KDTW 292322Z 3000/0106 02005KT P6SM OVC045
     FM300900 02003KT P6SM SCT045 OVC200
     FM301500 08010KT P6SM OVC150
     FM301800 09007KT P6SM OVC070
     FM302200 08008KT 6SM -SHRA BKN030 OVC070
     FM010100 08008KT 2SM RA BR OVC025=



000
FTUS43 KDTX 292322
TAFFNT
TAF
KFNT 292322Z 3000/3024 05005KT P6SM OVC045
     FM301200 07008KT P6SM SCT045 OVC250
     FM301800 10010KT P6SM SCT035 OVC090
     FM302100 08010KT P6SM OVC035=



000
FTUS43 KDTX 292057 AAA
TAFDTW
TAF AMD
KDTW 292057Z 2921/3024 03008KT P6SM OVC035
     FM300000 07004KT P6SM BKN045
     FM300500 02003KT P6SM SCT045
     FM301500 08010KT P6SM OVC150
     FM302200 08008KT 5SM -SHRA SCT040 BKN080=



000
FTUS43 KDTX 292057 AAA
TAFDTW
TAF AMD
KDTW 292057Z 2921/3024 03008KT P6SM OVC035
     FM300000 07004KT P6SM BKN045
     FM300500 02003KT P6SM SCT045
     FM301500 08010KT P6SM OVC150
     FM302200 08008KT 5SM -SHRA SCT040 BKN080=



000
FTUS43 KDTX 291725
TAFMBS
TAF
KMBS 291725Z 2918/3018 06010KT P6SM BKN040 OVC060
     FM300000 05005KT P6SM BKN045
     FM300500 05004KT P6SM SCT045
     FM301500 08010KT P6SM OVC150=



000
FTUS43 KDTX 291725
TAFDTW
TAF
KDTW 291725Z 2918/3024 01008KT P6SM BKN025 OVC035
     FM291900 03008KT P6SM OVC035
     FM300000 07004KT P6SM BKN045
     FM300500 02003KT P6SM SCT045
     FM301500 08010KT P6SM OVC150
     FM302200 08008KT 5SM -SHRA SCT040 BKN080=



000
FTUS43 KDTX 291725
TAFDET
TAF
KDET 291725Z 2918/3018 05008KT P6SM OVC035
     FM300000 07004KT P6SM BKN045
     FM300500 04003KT P6SM SCT045
     FM301500 09010KT P6SM OVC150=



000
FTUS43 KDTX 291725
TAFFNT
TAF
KFNT 291725Z 2918/3018 05010KT P6SM BKN018 OVC035
     FM292000 06009KT P6SM OVC035
     FM300000 07005KT P6SM BKN045
     FM300500 07002KT P6SM SCT045
     FM301500 10010KT P6SM OVC150=



000
FTUS43 KDTX 291455 AAB
TAFDTW
TAF AMD
KDTW 291455Z 2915/3018 03008KT 6SM -SHRA BKN028 OVC035
     FM292000 06008KT P6SM OVC045
     FM300000 06004KT P6SM SCT200
     FM301500 08012KT P6SM OVC200=



000
FTUS43 KDTX 291455 AAB
TAFDTW
TAF AMD
KDTW 291455Z 2915/3018 03008KT 6SM -SHRA BKN028 OVC035
     FM292000 06008KT P6SM OVC045
     FM300000 06004KT P6SM SCT200
     FM301500 08012KT P6SM OVC200=



000
FTUS43 KDTX 291413 AAA
TAFDET
TAF AMD
KDET 291413Z 2914/3012 04007KT 6SM -SHRA BKN025 OVC035
     FM291900 06010KT P6SM OVC045
     FM300000 06004KT P6SM SCT200=



000
FTUS43 KDTX 291413 AAA
TAFDET
TAF AMD
KDET 291413Z 2914/3012 04007KT 6SM -SHRA BKN025 OVC035
     FM291900 06010KT P6SM OVC045
     FM300000 06004KT P6SM SCT200=



000
FTUS43 KDTX 291213 AAA
TAFDTW
TAF AMD
KDTW 291213Z 2912/3018 05005KT P6SM BKN028 OVC035
     FM291300 03007KT 6SM -SHRA BKN028 OVC035
     FM291900 06010KT P6SM OVC045
     FM300000 06004KT P6SM SCT200
     FM301500 08012KT P6SM OVC200=



000
FTUS43 KDTX 291213 AAA
TAFDTW
TAF AMD
KDTW 291213Z 2912/3018 05005KT P6SM BKN028 OVC035
     FM291300 03007KT 6SM -SHRA BKN028 OVC035
     FM291900 06010KT P6SM OVC045
     FM300000 06004KT P6SM SCT200
     FM301500 08012KT P6SM OVC200=



000
FTUS43 KDTX 291120
TAFDTW
TAF
KDTW 291120Z 2912/3018 05005KT P6SM OVC040
     FM291300 03007KT 6SM -SHRA OVC035
     FM291900 06010KT P6SM OVC045
     FM300000 06004KT P6SM SCT200
     FM301500 08012KT P6SM OVC200=



000
FTUS43 KDTX 291120
TAFFNT
TAF
KFNT 291120Z 2912/3012 05005KT P6SM OVC040
     FM291300 03007KT 6SM -SHRA OVC035
     FM291700 06010KT P6SM OVC040
     FM300000 05004KT P6SM SCT200=



000
FTUS43 KDTX 291120
TAFMBS
TAF
KMBS 291120Z 2912/3012 03005KT P6SM OVC060
     FM291400 03007KT 6SM -SHRA OVC035
     FM291700 06010KT P6SM OVC040
     FM300000 04004KT P6SM SCT200=



000
FTUS43 KDTX 291120
TAFDET
TAF
KDET 291120Z 2912/3012 05005KT P6SM OVC035
     FM291300 03007KT 6SM -SHRA OVC035
     FM291900 06010KT P6SM OVC045
     FM300000 06004KT P6SM SCT200=



000
FTUS43 KDTX 291120
TAFFNT
TAF
KFNT 291120Z 2912/3012 05005KT P6SM OVC040
     FM291300 03007KT 6SM -SHRA OVC035
     FM291700 06010KT P6SM OVC040
     FM300000 05004KT P6SM SCT200=



000
FTUS43 KDTX 291120
TAFMBS
TAF
KMBS 291120Z 2912/3012 03005KT P6SM OVC060
     FM291400 03007KT 6SM -SHRA OVC035
     FM291700 06010KT P6SM OVC040
     FM300000 04004KT P6SM SCT200=



000
FTUS43 KDTX 290806 AAA
TAFDTW
TAF AMD
KDTW 290806Z 2908/3012 03005KT P6SM OVC035
     FM291300 03007KT 6SM -SHRA OVC035
     FM291900 06010KT P6SM OVC045
     FM300000 03004KT P6SM SCT200=



000
FTUS43 KDTX 290806 AAA
TAFMBS
TAF AMD
KMBS 290806Z 2908/3006 01005KT P6SM OVC060
     FM291400 03007KT 6SM -SHRA OVC035
     FM291700 06010KT P6SM OVC040
     FM300000 03004KT P6SM SCT200=



000
FTUS43 KDTX 290806 AAA
TAFFNT
TAF AMD
KFNT 290806Z 2908/3006 05005KT P6SM OVC040
     FM291300 03007KT 6SM -SHRA OVC035
     FM291700 06010KT P6SM OVC040
     FM300000 03004KT P6SM SCT200=



000
FTUS43 KDTX 290806 AAA
TAFDET
TAF AMD
KDET 290806Z 2908/3006 05005KT P6SM OVC040
     FM291300 03007KT 6SM -SHRA OVC035
     FM291900 06010KT P6SM OVC045
     FM300000 03004KT P6SM SCT200=



000
FTUS43 KDTX 290520
TAFDTW
TAF
KDTW 290520Z 2906/3012 03007KT P6SM OVC045
     FM291300 03007KT 6SM -SHRA OVC035
     FM291900 06010KT P6SM OVC045
     FM300300 03004KT P6SM SCT040=



000
FTUS43 KDTX 290520
TAFDET
TAF
KDET 290520Z 2906/3006 03005KT P6SM OVC045
     FM291300 03007KT 6SM -SHRA OVC035
     FM291900 06010KT P6SM OVC045
     FM300300 03004KT P6SM SCT040=



000
FTUS43 KDTX 290520
TAFMBS
TAF
KMBS 290520Z 2906/3006 07009KT P6SM OVC045
     FM291500 03007KT P6SM OVC035
     FM292000 06010KT P6SM OVC040
     FM300300 03004KT P6SM SCT030=



000
FTUS43 KDTX 290520
TAFFNT
TAF
KFNT 290520Z 2906/3006 06005KT P6SM OVC040
     FM291500 03007KT 6SM -SHRA OVC035
     FM292000 06010KT P6SM OVC040
     FM300300 03004KT P6SM SCT030=



000
FTUS43 KDTX 290240 AAA
TAFDTW
TAF AMD
KDTW 290240Z 2903/3006 03007KT P6SM OVC045
     FM291300 03007KT 6SM -SHRA OVC035
     FM291900 06010KT P6SM OVC045=



000
FTUS43 KDTX 282320
TAFDTW
TAF
KDTW 282320Z 2900/3006 06007KT P6SM OVC045
     FM290100 06005KT P6SM OVC045
     FM291300 03007KT 6SM -SHRA OVC035
     FM291900 06010KT P6SM OVC045=



000
FTUS43 KDTX 282320
TAFFNT
TAF
KFNT 282320Z 2900/2924 07010KT P6SM OVC060
     FM290200 06005KT P6SM OVC060
     FM291500 03007KT 6SM -SHRA OVC035
     FM292000 06010KT P6SM OVC040=



000
FTUS43 KDTX 282320
TAFDET
TAF
KDET 282320Z 2900/2924 06007KT P6SM OVC045
     FM290100 06005KT P6SM OVC045
     FM291300 03007KT 6SM -SHRA OVC035
     FM291900 06010KT P6SM OVC045=



000
FTUS43 KDTX 282320
TAFMBS
TAF
KMBS 282320Z 2900/2924 07013KT P6SM OVC060
     FM290300 07010KT P6SM OVC060
     FM291500 03007KT P6SM OVC035
     FM292000 06010KT P6SM OVC040=



000
FTUS43 KDTX 282106 AAA
TAFDTW
TAF AMD
KDTW 282106Z 2821/2924 06010KT P6SM OVC045
     FM290100 06005KT P6SM OVC045
     FM291300 03007KT P6SM OVC035
     FM291900 06010KT P6SM OVC045=



000
FTUS43 KDTX 281723
TAFDET
TAF
KDET 281723Z 2818/2918 07010KT 6SM -SHRA OVC060
     FM290100 05005KT P6SM OVC045
     FM291300 03007KT P6SM OVC035=



000
FTUS43 KDTX 281723
TAFMBS
TAF
KMBS 281723Z 2818/2918 07013KT 6SM -SHRA OVC060
      TEMPO 2818/2822 3SM -RA OVC035
     FM290100 07010KT P6SM OVC060
     FM291300 03007KT 6SM -SHRA OVC045=



000
FTUS43 KDTX 281723
TAFDTW
TAF
KDTW 281723Z 2818/2924 06010KT P6SM OVC060
      TEMPO 2818/2822 6SM -RA OVC045
     FM290100 06005KT P6SM OVC045
     FM291300 03007KT P6SM OVC035
     FM291900 06010KT P6SM OVC045=



000
FTUS43 KDTX 281723
TAFFNT
TAF
KFNT 281723Z 2818/2918 09010KT 6SM -SHRA OVC060
      TEMPO 2818/2822 3SM -RA OVC035
     FM290100 06005KT P6SM OVC060
     FM291300 03007KT 6SM -SHRA OVC045=



000
FTUS43 KDTX 281510 AAA
TAFMBS
TAF AMD
KMBS 281510Z 2815/2912 07012KT 6SM -SHRA SCT045 OVC090
     FM282200 05007KT P6SM OVC045
     FM290200 03005KT P6SM OVC030
     FM290600 36005KT P6SM OVC045=



000
FTUS43 KDTX 281508 AAA
TAFFNT
TAF AMD
KFNT 281508Z 2815/2912 09010KT 6SM -SHRA SCT045 OVC090
      TEMPO 2815/2819 4SM RA OVC045
     FM282200 07007KT P6SM OVC045
     FM290200 03005KT P6SM OVC025
     FM290600 36005KT P6SM OVC045=



000
FTUS43 KDTX 281503 AAA
TAFDET
TAF AMD
KDET 281503Z 2815/2912 07012KT 6SM -SHRA SCT045 OVC090
     FM282200 07007KT P6SM OVC045
     FM290200 03005KT P6SM OVC025
     FM290600 36005KT P6SM OVC045=



000
FTUS43 KDTX 281456 AAA
TAFDTW
TAF AMD
KDTW 281456Z 2815/2918 05012KT 6SM -SHRA SCT045 OVC090
      TEMPO 2815/2819 4SM RA OVC045
     FM282200 05007KT P6SM OVC045
     FM290200 03005KT P6SM OVC025
     FM290600 36005KT P6SM OVC045
     FM291200 03007KT P6SM BKN045 OVC060=



000
FTUS43 KDTX 281456 AAA
TAFDTW
TAF AMD
KDTW 281456Z 2815/2918 05012KT 6SM -SHRA SCT045 OVC090
      TEMPO 2815/2819 4SM RA OVC045
     FM282200 05007KT P6SM OVC045
     FM290200 03005KT P6SM OVC025
     FM290600 36005KT P6SM OVC045
     FM291200 03007KT P6SM BKN045 OVC060=



000
FTUS43 KDTX 281120
TAFDTW
TAF
KDTW 281120Z 2812/2918 03012KT 6SM -SHRA BR OVC045
     FM281600 04010KT P6SM OVC040
     FM282000 03007KT P6SM OVC035
     FM290200 02006KT P6SM OVC025
     FM290600 36005KT P6SM OVC045
     FM291200 02007KT P6SM BKN045 OVC060=



000
FTUS43 KDTX 281120
TAFDET
TAF
KDET 281120Z 2812/2912 03012KT 6SM -SHRA BR OVC045
     FM281600 04010KT P6SM OVC040
     FM282000 03007KT P6SM OVC035
     FM290200 02006KT P6SM OVC025
     FM290600 36005KT P6SM OVC045=



000
FTUS43 KDTX 281120
TAFMBS
TAF
KMBS 281120Z 2812/2912 04012KT P6SM SCT060 OVC120
     FM281500 03012KT P6SM -SHRA OVC060
     FM281900 04010KT P6SM OVC045
     FM282200 03007KT P6SM OVC040
     FM290200 02006KT P6SM OVC030
     FM290600 36005KT P6SM OVC045=



000
FTUS43 KDTX 281120
TAFFNT
TAF
KFNT 281120Z 2812/2912 04012KT P6SM SCT045 OVC090
     FM281400 03012KT 6SM -SHRA BR OVC045
     FM281800 04010KT P6SM OVC040
     FM282100 03007KT P6SM OVC035
     FM290200 02006KT P6SM OVC025
     FM290600 36005KT P6SM OVC045=



000
FTUS43 KDTX 280950 AAA
TAFFNT
TAF AMD
KFNT 280950Z 2810/2906 06010KT P6SM BKN100 OVC200
     FM281200 06011KT P6SM OVC060
     FM281400 07012KT 5SM -SHRA OVC045
     FM282000 06010KT P6SM OVC040=



000
FTUS43 KDTX 280948 AAA
TAFDET
TAF AMD
KDET 280948Z 2810/2906 04010KT P6SM SCT045 OVC120
     FM281200 04012KT 5SM -SHRA OVC045
     FM281600 04010KT P6SM OVC040
     FM282000 04007KT P6SM OVC035=



000
FTUS43 KDTX 280909 AAA
TAFDTW
TAF AMD
KDTW 280909Z 2809/2912 03010KT P6SM OVC100
     FM281100 04012KT 5SM -SHRA OVC045
     FM281600 04010KT P6SM OVC040
     FM282000 04007KT P6SM OVC035=



000
FTUS43 KDTX 280520
TAFFNT
TAF
KFNT 280520Z 2806/2906 08008KT P6SM BKN200
     FM281000 06010KT P6SM OVC060
     FM281300 07012KT 5SM -SHRA OVC045
     FM282000 06010KT P6SM OVC040=



000
FTUS43 KDTX 280520
TAFDET
TAF
KDET 280520Z 2806/2906 06012KT P6SM BKN200
     FM280900 03009KT P6SM OVC060
     FM281000 04013KT 5SM -SHRA OVC045
     FM281600 04010KT P6SM OVC040
     FM282000 04007KT P6SM OVC035=



000
FTUS43 KDTX 280520
TAFDTW
TAF
KDTW 280520Z 2806/2912 04012KT P6SM BKN200
     FM280900 03009KT P6SM OVC060
     FM281000 04013KT 5SM -SHRA OVC045
     FM281600 04010KT P6SM OVC040
     FM282000 04007KT P6SM OVC035=



000
FTUS43 KDTX 280520
TAFMBS
TAF
KMBS 280520Z 2806/2906 07007KT P6SM BKN200
     FM281100 06010KT P6SM OVC080
     FM281400 06012KT 5SM -SHRA OVC045
     FM282000 06010KT P6SM OVC040=



000
FTUS43 KDTX 280259 AAA
TAFDTW
TAF AMD
KDTW 280259Z 2803/2906 04012KT P6SM BKN200
     FM280900 03009KT P6SM OVC060
     FM281000 04013KT 5SM -SHRA OVC045
     FM281600 04010KT P6SM OVC040
     FM282000 04007KT P6SM OVC035=



000
FTUS43 KDTX 280259 AAA
TAFDTW
TAF AMD
KDTW 280259Z 2803/2906 04012KT P6SM BKN200
     FM280900 03009KT P6SM OVC060
     FM281000 04013KT 5SM -SHRA OVC045
     FM281600 04010KT P6SM OVC040
     FM282000 04007KT P6SM OVC035=



000
FTUS43 KDTX 280259 AAA
TAFDET
TAF AMD
KDET 280259Z 2803/2824 06012KT P6SM BKN200
     FM280900 03009KT P6SM OVC060
     FM281000 04013KT 5SM -SHRA OVC045
     FM281600 04010KT P6SM OVC040
     FM282000 04007KT P6SM OVC035=



000
FTUS43 KDTX 280259 AAA
TAFDET
TAF AMD
KDET 280259Z 2803/2824 06012KT P6SM BKN200
     FM280900 03009KT P6SM OVC060
     FM281000 04013KT 5SM -SHRA OVC045
     FM281600 04010KT P6SM OVC040
     FM282000 04007KT P6SM OVC035=



000
FTUS43 KDTX 272322
TAFFNT
TAF
KFNT 272322Z 2800/2824 08008KT P6SM BKN200
     FM281000 06010KT P6SM OVC060
     FM281300 07012KT 5SM -SHRA OVC045
     FM282000 06010KT P6SM OVC040=



000
FTUS43 KDTX 272322
TAFDTW
TAF
KDTW 272322Z 2800/2906 07008KT P6SM BKN200
     FM280900 03009KT P6SM OVC060
     FM281000 04013KT 5SM -SHRA OVC045
     FM281600 04010KT P6SM OVC040
     FM282000 04007KT P6SM OVC035=



000
FTUS43 KDTX 272322
TAFMBS
TAF
KMBS 272322Z 2800/2824 07007KT P6SM BKN200
     FM281100 06010KT P6SM OVC080
     FM281400 06012KT 5SM -SHRA OVC045
     FM282000 06010KT P6SM OVC040=



000
FTUS43 KDTX 272322
TAFDET
TAF
KDET 272322Z 2800/2824 07008KT P6SM BKN200
     FM280900 03009KT P6SM OVC060
     FM281000 04013KT 5SM -SHRA OVC045
     FM281600 04010KT P6SM OVC040
     FM282000 04007KT P6SM OVC035=



000
FTUS43 KDTX 272110 AAA
TAFDTW
TAF AMD
KDTW 272110Z 2721/2824 06010G17KT P6SM BKN250
     FM280000 04008KT P6SM BKN200
     FM280900 03009KT P6SM OVC060
     FM281100 04013KT 5SM -SHRA OVC045
     FM281600 04010KT P6SM OVC040=



000
FTUS43 KDTX 271720
TAFFNT
TAF
KFNT 271720Z 2718/2818 07012G19KT P6SM FEW250
     FM280200 07008KT P6SM BKN200
     FM281000 06010KT P6SM OVC060
     FM281200 07012KT 5SM -SHRA OVC045=



000
FTUS43 KDTX 271720
TAFDTW
TAF
KDTW 271720Z 2718/2824 06010G17KT P6SM SCT250
     FM280000 04008KT P6SM BKN200
     FM280900 03009KT P6SM OVC060
     FM281100 04013KT 5SM -SHRA OVC045
     FM281600 04010KT P6SM OVC040=



000
FTUS43 KDTX 271720
TAFMBS
TAF
KMBS 271720Z 2718/2818 05012G20KT P6SM FEW250
     FM280200 06007KT P6SM BKN200
     FM281100 06010KT P6SM OVC080
     FM281300 06012KT 5SM -SHRA OVC045=



000
FTUS43 KDTX 271720
TAFDET
TAF
KDET 271720Z 2718/2818 06011G18KT P6SM SCT250
     FM280000 05008KT P6SM BKN200
     FM280900 06010KT P6SM OVC060
     FM281100 05012KT 5SM -SHRA OVC045
     FM281600 06011KT P6SM OVC040=



000
FTUS43 KDTX 271720
TAFMBS
TAF
KMBS 271720Z 2718/2818 05012G20KT P6SM FEW250
     FM280200 06007KT P6SM BKN200
     FM281100 06010KT P6SM OVC080
     FM281300 06012KT 5SM -SHRA OVC045=



000
FTUS43 KDTX 271453 AAA
TAFDTW
TAF AMD
KDTW 271453Z 2715/2818 06010KT P6SM SCT250
     FM280000 04007KT P6SM BKN250
     FM280800 06006KT P6SM BKN100
     FM281400 07010KT P6SM BKN050=



000
FTUS43 KDTX 271120
TAFMBS
TAF
KMBS 271120Z 2712/2812 03007KT P6SM SKC
     FM271500 04010KT P6SM SKC
     FM280300 07007KT P6SM SCT250
     FM281000 08006KT P6SM BKN150=



000
FTUS43 KDTX 271120
TAFDET
TAF
KDET 271120Z 2712/2812 04007KT P6SM FEW250
     FM271500 07010KT P6SM SCT250
     FM280000 05007KT P6SM BKN250
     FM280800 06006KT P6SM BKN100=



000
FTUS43 KDTX 271120
TAFFNT
TAF
KFNT 271120Z 2712/2812 04007KT P6SM SKC
     FM271500 08010KT P6SM FEW250
     FM280200 07007KT P6SM BKN250
     FM281000 08006KT P6SM BKN100=



000
FTUS43 KDTX 271120
TAFMBS
TAF
KMBS 271120Z 2712/2812 03007KT P6SM SKC
     FM271500 04010KT P6SM SKC
     FM280300 07007KT P6SM SCT250
     FM281000 08006KT P6SM BKN150=



000
FTUS43 KDTX 271120
TAFDTW
TAF
KDTW 271120Z 2712/2818 04007KT P6SM FEW250
     FM271500 07010KT P6SM SCT250
     FM280000 05007KT P6SM BKN250
     FM280800 06006KT P6SM BKN100
     FM281400 07010KT P6SM BKN050=



000
FTUS43 KDTX 271120
TAFFNT
TAF
KFNT 271120Z 2712/2812 04007KT P6SM SKC
     FM271500 08010KT P6SM FEW250
     FM280200 07007KT P6SM BKN250
     FM281000 08006KT P6SM BKN100=



000
FTUS43 KDTX 271020 AAA
TAFDET
TAF AMD
KDET 271020Z 2710/2806 02006KT P6SM SKC
     FM271300 05004KT P6SM FEW250
     FM271600 08008KT P6SM SCT250=



000
FTUS43 KDTX 271020 AAB
TAFDTW
TAF AMD
KDTW 271020Z 2710/2812 02006KT P6SM SCT020 BKN080
     FM271200 05005KT P6SM FEW250
     FM271600 08008KT P6SM SCT250=



000
FTUS43 KDTX 270823 AAA
TAFDTW
TAF AMD
KDTW 270823Z 2708/2812 02004KT P6SM OVC018
     FM271200 05005KT P6SM SCT025
     FM271400 08008KT P6SM FEW250=



000
FTUS43 KDTX 270823 AAA
TAFDTW
TAF AMD
KDTW 270823Z 2708/2812 02004KT P6SM OVC018
     FM271200 05005KT P6SM SCT025
     FM271400 08008KT P6SM FEW250=



000
FTUS43 KDTX 270523
TAFDET
TAF
KDET 270523Z 2706/2806 05006KT P6SM OVC020
     FM271200 05004KT P6SM SCT030
     FM271500 08008KT P6SM SKC=



000
FTUS43 KDTX 270523
TAFFNT
TAF
KFNT 270523Z 2706/2806 05004KT P6SM SKC
     FM271500 08008KT P6SM SKC=



000
FTUS43 KDTX 270523
TAFDTW
TAF
KDTW 270523Z 2706/2812 03006KT P6SM OVC020
     FM271200 05004KT P6SM SCT030
     FM271500 08008KT P6SM SKC=



000
FTUS43 KDTX 270523
TAFMBS
TAF
KMBS 270523Z 2706/2806 02004KT P6SM SKC
     FM271500 06008KT P6SM SKC=



000
FTUS43 KDTX 270315 AAA
TAFDTW
TAF AMD
KDTW 270315Z 2703/2806 03007KT P6SM OVC020
     FM271000 05004KT P6SM SCT030
     FM271300 08008KT P6SM SKC=



    US Dept of Commerce
    National Oceanic and Atmospheric Administration
    National Weather Service
    1325 East West Highway
    Silver Spring, MD 20910
    Page Author: NWS Internet Services Team
Disclaimer
Information Quality
Credits
Glossary
Privacy Policy
Freedom of Information Act (FOIA)
About Us
Career Opportunities